sensor_id;sensor_type;location;lat;lon;timestamp;P1;durP1;ratioP1;P2;durP2;ratioP2
13487;SDS011;6816;48.506;9.050;2022-10-22T00:00:00;3.20;;;1.10;;
13487;SDS011;6816;48.506;9.050;2022-10-22T00:03:02;4.10;;;0.90;;
13487;SDS011;6816;48.506;9.050;2022-10-22T00:06:02;1.87;;;0.90;;
13487;SDS011;6816;48.506;9.050;2022-10-22T00:09:03;2.17;;;0.53;;
13487;SDS011;6816;48.506;9.050;2022-10-22T00:12:04;2.97;;;0.93;;
13487;SDS011;6816;48.506;9.050;2022-10-22T00:15:05;2.27;;;0.70;;
13487;SDS011;6816;48.506;9.050;2022-10-22T00:18:06;3.80;;;0.70;;
13487;SDS011;6816;48.506;9.050;2022-10-22T00:21:07;1.43;;;0.73;;
13487;SDS011;6816;48.506;9.050;2022-10-22T00:24:08;0.90;;;0.60;;
13487;SDS011;6816;48.506;9.050;2022-10-22T00:27:09;0.87;;;0.60;;
13487;SDS011;6816;48.506;9.050;2022-10-22T00:30:11;3.90;;;0.50;;
13487;SDS011;6816;48.506;9.050;2022-10-22T00:33:12;3.70;;;0.70;;
13487;SDS011;6816;48.506;9.050;2022-10-22T00:36:13;2.73;;;0.50;;
13487;SDS011;6816;48.506;9.050;2022-10-22T00:39:15;1.70;;;0.50;;
13487;SDS011;6816;48.506;9.050;2022-10-22T00:42:18;0.80;;;0.50;;
13487;SDS011;6816;48.506;9.050;2022-10-22T00:45:21;2.33;;;0.90;;
13487;SDS011;6816;48.506;9.050;2022-10-22T00:48:27;3.80;;;0.60;;
13487;SDS011;6816;48.506;9.050;2022-10-22T00:51:31;1.77;;;0.50;;
13487;SDS011;6816;48.506;9.050;2022-10-22T00:54:33;1.43;;;0.60;;
13487;SDS011;6816;48.506;9.050;2022-10-22T00:57:35;1.03;;;0.70;;
13487;SDS011;6816;48.506;9.050;2022-10-22T01:00:36;1.87;;;0.80;;
13487;SDS011;6816;48.506;9.050;2022-10-22T01:03:37;4.27;;;0.63;;
13487;SDS011;6816;48.506;9.050;2022-10-22T01:06:37;1.53;;;0.70;;
13487;SDS011;6816;48.506;9.050;2022-10-22T01:09:42;3.53;;;0.70;;
13487;SDS011;6816;48.506;9.050;2022-10-22T01:16:34;1.77;;;0.70;;
13487;SDS011;6816;48.506;9.050;2022-10-22T01:20:11;4.73;;;0.70;;
13487;SDS011;6816;48.506;9.050;2022-10-22T01:30:03;2.30;;;0.80;;
13487;SDS011;6816;48.506;9.050;2022-10-22T01:33:10;2.37;;;0.40;;
13487;SDS011;6816;48.506;9.050;2022-10-22T01:36:14;2.43;;;0.50;;
13487;SDS011;6816;48.506;9.050;2022-10-22T01:39:16;1.00;;;0.40;;
13487;SDS011;6816;48.506;9.050;2022-10-22T01:42:18;3.23;;;0.50;;
13487;SDS011;6816;48.506;9.050;2022-10-22T01:45:19;1.00;;;0.50;;
13487;SDS011;6816;48.506;9.050;2022-10-22T01:51:51;1.87;;;0.50;;
13487;SDS011;6816;48.506;9.050;2022-10-22T01:58:54;1.17;;;0.40;;
13487;SDS011;6816;48.506;9.050;2022-10-22T02:02:12;1.50;;;0.30;;
13487;SDS011;6816;48.506;9.050;2022-10-22T02:05:18;2.87;;;0.50;;
13487;SDS011;6816;48.506;9.050;2022-10-22T02:08:30;3.70;;;0.40;;
13487;SDS011;6816;48.506;9.050;2022-10-22T02:11:32;2.63;;;0.50;;
13487;SDS011;6816;48.506;9.050;2022-10-22T02:14:34;2.00;;;0.30;;
13487;SDS011;6816;48.506;9.050;2022-10-22T02:17:37;0.30;;;0.30;;
13487;SDS011;6816;48.506;9.050;2022-10-22T02:20:39;0.80;;;0.50;;
13487;SDS011;6816;48.506;9.050;2022-10-22T02:23:41;0.20;;;0.20;;
13487;SDS011;6816;48.506;9.050;2022-10-22T02:33:12;0.63;;;0.40;;
13487;SDS011;6816;48.506;9.050;2022-10-22T02:36:20;1.17;;;0.30;;
13487;SDS011;6816;48.506;9.050;2022-10-22T02:39:22;0.80;;;0.30;;
13487;SDS011;6816;48.506;9.050;2022-10-22T02:42:24;1.30;;;0.40;;
13487;SDS011;6816;48.506;9.050;2022-10-22T02:45:27;2.63;;;0.77;;
13487;SDS011;6816;48.506;9.050;2022-10-22T02:48:27;0.30;;;0.30;;
13487;SDS011;6816;48.506;9.050;2022-10-22T02:51:28;0.50;;;0.30;;
13487;SDS011;6816;48.506;9.050;2022-10-22T02:54:29;1.13;;;0.30;;
13487;SDS011;6816;48.506;9.050;2022-10-22T02:57:30;0.93;;;0.40;;
13487;SDS011;6816;48.506;9.050;2022-10-22T03:00:30;0.70;;;0.40;;
13487;SDS011;6816;48.506;9.050;2022-10-22T03:03:31;0.53;;;0.40;;
13487;SDS011;6816;48.506;9.050;2022-10-22T03:06:32;1.97;;;0.40;;
13487;SDS011;6816;48.506;9.050;2022-10-22T03:09:32;0.60;;;0.30;;
13487;SDS011;6816;48.506;9.050;2022-10-22T03:12:33;3.00;;;0.50;;
13487;SDS011;6816;48.506;9.050;2022-10-22T03:15:34;3.07;;;0.30;;
13487;SDS011;6816;48.506;9.050;2022-10-22T03:18:35;1.83;;;0.30;;
13487;SDS011;6816;48.506;9.050;2022-10-22T03:21:47;0.33;;;0.20;;
13487;SDS011;6816;48.506;9.050;2022-10-22T03:24:52;2.27;;;0.30;;
13487;SDS011;6816;48.506;9.050;2022-10-22T03:27:57;0.40;;;0.30;;
13487;SDS011;6816;48.506;9.050;2022-10-22T03:31:04;0.80;;;0.30;;
13487;SDS011;6816;48.506;9.050;2022-10-22T03:34:04;0.97;;;0.40;;
13487;SDS011;6816;48.506;9.050;2022-10-22T03:37:05;5.03;;;0.40;;
13487;SDS011;6816;48.506;9.050;2022-10-22T03:40:06;0.43;;;0.30;;
13487;SDS011;6816;48.506;9.050;2022-10-22T03:43:07;0.43;;;0.30;;
13487;SDS011;6816;48.506;9.050;2022-10-22T03:46:08;0.40;;;0.30;;
13487;SDS011;6816;48.506;9.050;2022-10-22T03:49:09;0.60;;;0.30;;
13487;SDS011;6816;48.506;9.050;2022-10-22T03:52:11;2.27;;;0.30;;
13487;SDS011;6816;48.506;9.050;2022-10-22T03:55:13;1.80;;;0.30;;
13487;SDS011;6816;48.506;9.050;2022-10-22T03:58:14;0.57;;;0.23;;
13487;SDS011;6816;48.506;9.050;2022-10-22T04:01:14;0.67;;;0.30;;
13487;SDS011;6816;48.506;9.050;2022-10-22T04:04:15;1.23;;;0.20;;
13487;SDS011;6816;48.506;9.050;2022-10-22T04:07:16;0.90;;;0.30;;
13487;SDS011;6816;48.506;9.050;2022-10-22T04:10:17;0.30;;;0.30;;
13487;SDS011;6816;48.506;9.050;2022-10-22T04:13:18;0.87;;;0.20;;
13487;SDS011;6816;48.506;9.050;2022-10-22T04:16:19;1.60;;;0.30;;
13487;SDS011;6816;48.506;9.050;2022-10-22T04:19:21;0.17;;;0.17;;
13487;SDS011;6816;48.506;9.050;2022-10-22T04:22:22;0.30;;;0.20;;
13487;SDS011;6816;48.506;9.050;2022-10-22T04:25:22;0.50;;;0.20;;
13487;SDS011;6816;48.506;9.050;2022-10-22T04:28:23;0.50;;;0.37;;
13487;SDS011;6816;48.506;9.050;2022-10-22T04:31:24;0.97;;;0.20;;
13487;SDS011;6816;48.506;9.050;2022-10-22T04:34:26;0.50;;;0.20;;
13487;SDS011;6816;48.506;9.050;2022-10-22T04:37:27;0.70;;;0.70;;
13487;SDS011;6816;48.506;9.050;2022-10-22T04:40:28;0.83;;;0.50;;
13487;SDS011;6816;48.506;9.050;2022-10-22T04:43:29;2.63;;;0.67;;
13487;SDS011;6816;48.506;9.050;2022-10-22T04:46:30;1.40;;;0.40;;
13487;SDS011;6816;48.506;9.050;2022-10-22T04:49:32;2.00;;;0.60;;
13487;SDS011;6816;48.506;9.050;2022-10-22T04:52:33;0.70;;;0.60;;
13487;SDS011;6816;48.506;9.050;2022-10-22T04:55:33;2.33;;;0.63;;
13487;SDS011;6816;48.506;9.050;2022-10-22T04:58:34;1.47;;;0.50;;
13487;SDS011;6816;48.506;9.050;2022-10-22T05:01:35;1.27;;;0.40;;
13487;SDS011;6816;48.506;9.050;2022-10-22T05:04:38;0.60;;;0.50;;
13487;SDS011;6816;48.506;9.050;2022-10-22T05:07:38;0.67;;;0.47;;
13487;SDS011;6816;48.506;9.050;2022-10-22T05:10:39;0.63;;;0.57;;
13487;SDS011;6816;48.506;9.050;2022-10-22T05:13:40;0.60;;;0.50;;
13487;SDS011;6816;48.506;9.050;2022-10-22T05:16:40;0.93;;;0.70;;
13487;SDS011;6816;48.506;9.050;2022-10-22T05:19:41;1.20;;;0.70;;
13487;SDS011;6816;48.506;9.050;2022-10-22T05:22:42;2.53;;;0.70;;
13487;SDS011;6816;48.506;9.050;2022-10-22T05:25:42;0.67;;;0.60;;
13487;SDS011;6816;48.506;9.050;2022-10-22T05:28:43;0.70;;;0.70;;
13487;SDS011;6816;48.506;9.050;2022-10-22T05:31:44;1.50;;;0.60;;
13487;SDS011;6816;48.506;9.050;2022-10-22T05:34:44;0.40;;;0.40;;
13487;SDS011;6816;48.506;9.050;2022-10-22T05:37:45;1.90;;;0.70;;
13487;SDS011;6816;48.506;9.050;2022-10-22T05:40:46;1.37;;;0.70;;
13487;SDS011;6816;48.506;9.050;2022-10-22T05:43:46;1.30;;;0.50;;
13487;SDS011;6816;48.506;9.050;2022-10-22T05:46:47;0.60;;;0.60;;
13487;SDS011;6816;48.506;9.050;2022-10-22T05:49:48;0.30;;;0.30;;
13487;SDS011;6816;48.506;9.050;2022-10-22T05:52:48;0.93;;;0.50;;
13487;SDS011;6816;48.506;9.050;2022-10-22T05:55:49;0.83;;;0.50;;
13487;SDS011;6816;48.506;9.050;2022-10-22T05:58:50;2.70;;;0.50;;
13487;SDS011;6816;48.506;9.050;2022-10-22T06:01:51;0.60;;;0.30;;
13487;SDS011;6816;48.506;9.050;2022-10-22T06:04:51;0.40;;;0.30;;
13487;SDS011;6816;48.506;9.050;2022-10-22T06:07:52;0.70;;;0.50;;
13487;SDS011;6816;48.506;9.050;2022-10-22T06:10:54;0.97;;;0.50;;
13487;SDS011;6816;48.506;9.050;2022-10-22T06:13:55;2.00;;;0.50;;
13487;SDS011;6816;48.506;9.050;2022-10-22T06:16:57;1.47;;;0.60;;
13487;SDS011;6816;48.506;9.050;2022-10-22T06:19:58;2.10;;;0.60;;
13487;SDS011;6816;48.506;9.050;2022-10-22T06:22:59;0.67;;;0.50;;
13487;SDS011;6816;48.506;9.050;2022-10-22T06:26:00;1.50;;;0.60;;
13487;SDS011;6816;48.506;9.050;2022-10-22T06:29:01;0.80;;;0.60;;
13487;SDS011;6816;48.506;9.050;2022-10-22T06:32:02;1.03;;;0.63;;
13487;SDS011;6816;48.506;9.050;2022-10-22T06:35:03;1.53;;;0.60;;
13487;SDS011;6816;48.506;9.050;2022-10-22T06:38:04;1.87;;;0.57;;
13487;SDS011;6816;48.506;9.050;2022-10-22T06:41:09;1.20;;;0.70;;
13487;SDS011;6816;48.506;9.050;2022-10-22T06:44:15;1.93;;;0.60;;
13487;SDS011;6816;48.506;9.050;2022-10-22T06:47:16;2.10;;;0.80;;
13487;SDS011;6816;48.506;9.050;2022-10-22T06:50:17;0.80;;;0.63;;
13487;SDS011;6816;48.506;9.050;2022-10-22T06:53:18;1.60;;;0.90;;
13487;SDS011;6816;48.506;9.050;2022-10-22T06:56:19;1.57;;;1.07;;
13487;SDS011;6816;48.506;9.050;2022-10-22T06:59:22;2.20;;;0.90;;
13487;SDS011;6816;48.506;9.050;2022-10-22T07:02:22;1.10;;;0.80;;
13487;SDS011;6816;48.506;9.050;2022-10-22T07:05:23;2.17;;;0.80;;
13487;SDS011;6816;48.506;9.050;2022-10-22T07:08:24;0.70;;;0.60;;
13487;SDS011;6816;48.506;9.050;2022-10-22T07:11:26;2.93;;;1.00;;
13487;SDS011;6816;48.506;9.050;2022-10-22T07:14:28;2.27;;;0.70;;
13487;SDS011;6816;48.506;9.050;2022-10-22T07:17:29;2.13;;;0.70;;
13487;SDS011;6816;48.506;9.050;2022-10-22T07:20:30;2.10;;;0.80;;
13487;SDS011;6816;48.506;9.050;2022-10-22T07:23:30;2.17;;;0.90;;
13487;SDS011;6816;48.506;9.050;2022-10-22T07:26:31;1.30;;;1.10;;
13487;SDS011;6816;48.506;9.050;2022-10-22T07:29:32;1.80;;;1.10;;
13487;SDS011;6816;48.506;9.050;2022-10-22T07:32:33;2.00;;;1.00;;
13487;SDS011;6816;48.506;9.050;2022-10-22T07:35:35;4.03;;;1.37;;
13487;SDS011;6816;48.506;9.050;2022-10-22T07:38:37;1.90;;;1.30;;
13487;SDS011;6816;48.506;9.050;2022-10-22T07:41:37;1.83;;;1.53;;
13487;SDS011;6816;48.506;9.050;2022-10-22T07:44:38;1.97;;;1.30;;
13487;SDS011;6816;48.506;9.050;2022-10-22T07:47:39;1.37;;;1.17;;
13487;SDS011;6816;48.506;9.050;2022-10-22T07:50:39;2.00;;;1.23;;
13487;SDS011;6816;48.506;9.050;2022-10-22T07:53:40;2.60;;;1.20;;
13487;SDS011;6816;48.506;9.050;2022-10-22T07:56:41;3.13;;;1.20;;
13487;SDS011;6816;48.506;9.050;2022-10-22T07:59:41;1.17;;;1.00;;
13487;SDS011;6816;48.506;9.050;2022-10-22T08:02:42;1.83;;;0.90;;
13487;SDS011;6816;48.506;9.050;2022-10-22T08:05:43;0.93;;;0.90;;
13487;SDS011;6816;48.506;9.050;2022-10-22T08:08:44;2.10;;;1.03;;
13487;SDS011;6816;48.506;9.050;2022-10-22T08:11:45;2.03;;;0.87;;
13487;SDS011;6816;48.506;9.050;2022-10-22T08:14:46;1.23;;;0.73;;
13487;SDS011;6816;48.506;9.050;2022-10-22T08:17:46;1.20;;;0.80;;
13487;SDS011;6816;48.506;9.050;2022-10-22T08:20:47;2.57;;;1.67;;
13487;SDS011;6816;48.506;9.050;2022-10-22T08:23:47;1.27;;;0.70;;
13487;SDS011;6816;48.506;9.050;2022-10-22T08:26:48;4.27;;;1.00;;
13487;SDS011;6816;48.506;9.050;2022-10-22T08:29:48;1.53;;;0.80;;
13487;SDS011;6816;48.506;9.050;2022-10-22T08:32:49;0.80;;;0.80;;
13487;SDS011;6816;48.506;9.050;2022-10-22T08:35:51;1.57;;;1.20;;
13487;SDS011;6816;48.506;9.050;2022-10-22T08:38:52;0.90;;;0.70;;
13487;SDS011;6816;48.506;9.050;2022-10-22T08:45:29;1.70;;;0.83;;
13487;SDS011;6816;48.506;9.050;2022-10-22T08:48:47;1.00;;;0.80;;
13487;SDS011;6816;48.506;9.050;2022-10-22T08:51:51;1.00;;;0.90;;
13487;SDS011;6816;48.506;9.050;2022-10-22T08:54:56;0.93;;;0.83;;
13487;SDS011;6816;48.506;9.050;2022-10-22T09:01:20;1.50;;;1.07;;
13487;SDS011;6816;48.506;9.050;2022-10-22T09:04:27;2.63;;;1.10;;
13487;SDS011;6816;48.506;9.050;2022-10-22T09:07:31;1.87;;;0.97;;
13487;SDS011;6816;48.506;9.050;2022-10-22T09:10:33;2.20;;;1.20;;
13487;SDS011;6816;48.506;9.050;2022-10-22T09:13:35;2.33;;;1.20;;
13487;SDS011;6816;48.506;9.050;2022-10-22T09:26:37;3.47;;;1.20;;
13487;SDS011;6816;48.506;9.050;2022-10-22T09:29:40;1.50;;;1.40;;
13487;SDS011;6816;48.506;9.050;2022-10-22T09:32:41;2.17;;;1.00;;
13487;SDS011;6816;48.506;9.050;2022-10-22T09:35:50;2.10;;;0.90;;
13487;SDS011;6816;48.506;9.050;2022-10-22T09:39:02;2.50;;;0.90;;
13487;SDS011;6816;48.506;9.050;2022-10-22T09:42:03;2.53;;;1.20;;
13487;SDS011;6816;48.506;9.050;2022-10-22T09:45:04;1.90;;;1.30;;
13487;SDS011;6816;48.506;9.050;2022-10-22T09:48:22;1.20;;;1.00;;
13487;SDS011;6816;48.506;9.050;2022-10-22T09:51:39;1.70;;;1.30;;
13487;SDS011;6816;48.506;9.050;2022-10-22T09:54:47;1.90;;;1.33;;
13487;SDS011;6816;48.506;9.050;2022-10-22T09:57:52;1.50;;;1.20;;
13487;SDS011;6816;48.506;9.050;2022-10-22T10:00:56;2.97;;;1.10;;
13487;SDS011;6816;48.506;9.050;2022-10-22T10:04:02;1.17;;;0.93;;
13487;SDS011;6816;48.506;9.050;2022-10-22T10:07:16;2.63;;;1.10;;
13487;SDS011;6816;48.506;9.050;2022-10-22T10:10:21;1.40;;;0.93;;
13487;SDS011;6816;48.506;9.050;2022-10-22T10:13:42;2.40;;;0.90;;
13487;SDS011;6816;48.506;9.050;2022-10-22T10:17:27;2.15;;;1.20;;
13487;SDS011;6816;48.506;9.050;2022-10-22T10:20:44;1.83;;;0.90;;
13487;SDS011;6816;48.506;9.050;2022-10-22T10:30:34;1.08;;;0.80;;
13487;SDS011;6816;48.506;9.050;2022-10-22T10:34:06;1.17;;;0.85;;
13487;SDS011;6816;48.506;9.050;2022-10-22T11:00:35;1.85;;;1.00;;
13487;SDS011;6816;48.506;9.050;2022-10-22T11:03:50;1.30;;;1.13;;
13487;SDS011;6816;48.506;9.050;2022-10-22T11:07:23;2.50;;;1.10;;
13487;SDS011;6816;48.506;9.050;2022-10-22T11:13:55;1.42;;;0.93;;
13487;SDS011;6816;48.506;9.050;2022-10-22T11:17:03;0.85;;;0.80;;
13487;SDS011;6816;48.506;9.050;2022-10-22T11:20:17;2.03;;;0.70;;
13487;SDS011;6816;48.506;9.050;2022-10-22T11:23:32;1.95;;;0.88;;
13487;SDS011;6816;48.506;9.050;2022-10-22T11:29:46;1.15;;;0.70;;
13487;SDS011;6816;48.506;9.050;2022-10-22T11:32:55;2.72;;;1.15;;
13487;SDS011;6816;48.506;9.050;2022-10-22T11:36:01;1.75;;;0.60;;
13487;SDS011;6816;48.506;9.050;2022-10-22T11:39:03;1.75;;;0.90;;
13487;SDS011;6816;48.506;9.050;2022-10-22T11:42:15;2.60;;;0.80;;
13487;SDS011;6816;48.506;9.050;2022-10-22T11:45:36;1.98;;;0.80;;
13487;SDS011;6816;48.506;9.050;2022-10-22T11:48:41;1.55;;;0.80;;
13487;SDS011;6816;48.506;9.050;2022-10-22T11:51:42;2.05;;;0.73;;
13487;SDS011;6816;48.506;9.050;2022-10-22T11:54:43;2.00;;;0.90;;
13487;SDS011;6816;48.506;9.050;2022-10-22T11:57:46;2.13;;;0.90;;
13487;SDS011;6816;48.506;9.050;2022-10-22T12:00:47;2.08;;;0.90;;
13487;SDS011;6816;48.506;9.050;2022-10-22T12:03:52;1.92;;;0.98;;
13487;SDS011;6816;48.506;9.050;2022-10-22T12:09:58;0.73;;;0.73;;
13487;SDS011;6816;48.506;9.050;2022-10-22T12:13:10;0.98;;;0.80;;
13487;SDS011;6816;48.506;9.050;2022-10-22T12:16:12;2.05;;;1.02;;
13487;SDS011;6816;48.506;9.050;2022-10-22T12:19:15;1.55;;;1.00;;
13487;SDS011;6816;48.506;9.050;2022-10-22T12:22:25;1.15;;;1.00;;
13487;SDS011;6816;48.506;9.050;2022-10-22T12:25:29;4.00;;;0.90;;
13487;SDS011;6816;48.506;9.050;2022-10-22T12:28:39;1.33;;;0.80;;
13487;SDS011;6816;48.506;9.050;2022-10-22T12:31:41;2.28;;;0.98;;
13487;SDS011;6816;48.506;9.050;2022-10-22T12:34:47;0.90;;;0.80;;
13487;SDS011;6816;48.506;9.050;2022-10-22T12:37:50;1.45;;;0.60;;
13487;SDS011;6816;48.506;9.050;2022-10-22T12:40:53;1.95;;;0.70;;
13487;SDS011;6816;48.506;9.050;2022-10-22T12:43:59;3.63;;;1.10;;
13487;SDS011;6816;48.506;9.050;2022-10-22T12:47:01;2.90;;;1.02;;
13487;SDS011;6816;48.506;9.050;2022-10-22T12:50:01;1.20;;;0.77;;
13487;SDS011;6816;48.506;9.050;2022-10-22T12:53:04;1.60;;;0.60;;
13487;SDS011;6816;48.506;9.050;2022-10-22T12:56:06;2.25;;;1.08;;
13487;SDS011;6816;48.506;9.050;2022-10-22T13:02:19;1.25;;;0.90;;
13487;SDS011;6816;48.506;9.050;2022-10-22T13:05:24;1.23;;;0.93;;
13487;SDS011;6816;48.506;9.050;2022-10-22T13:08:26;2.00;;;0.90;;
13487;SDS011;6816;48.506;9.050;2022-10-22T13:11:38;1.95;;;0.90;;
13487;SDS011;6816;48.506;9.050;2022-10-22T13:14:50;2.00;;;0.80;;
13487;SDS011;6816;48.506;9.050;2022-10-22T13:17:59;1.92;;;0.90;;
13487;SDS011;6816;48.506;9.050;2022-10-22T13:21:19;2.45;;;1.00;;
13487;SDS011;6816;48.506;9.050;2022-10-22T13:24:22;3.38;;;0.88;;
13487;SDS011;6816;48.506;9.050;2022-10-22T13:27:27;1.20;;;0.82;;
13487;SDS011;6816;48.506;9.050;2022-10-22T13:30:29;1.73;;;0.82;;
13487;SDS011;6816;48.506;9.050;2022-10-22T13:33:33;1.73;;;0.80;;
13487;SDS011;6816;48.506;9.050;2022-10-22T13:36:37;2.33;;;0.80;;
13487;SDS011;6816;48.506;9.050;2022-10-22T13:39:37;1.30;;;0.75;;
13487;SDS011;6816;48.506;9.050;2022-10-22T13:42:38;1.15;;;0.65;;
13487;SDS011;6816;48.506;9.050;2022-10-22T13:45:39;1.70;;;0.80;;
13487;SDS011;6816;48.506;9.050;2022-10-22T13:48:39;2.20;;;0.80;;
13487;SDS011;6816;48.506;9.050;2022-10-22T13:51:50;0.85;;;0.70;;
13487;SDS011;6816;48.506;9.050;2022-10-22T13:54:51;2.00;;;0.65;;
13487;SDS011;6816;48.506;9.050;2022-10-22T13:57:54;1.63;;;0.70;;
13487;SDS011;6816;48.506;9.050;2022-10-22T14:00:57;9.48;;;0.90;;
13487;SDS011;6816;48.506;9.050;2022-10-22T14:03:59;2.35;;;0.70;;
13487;SDS011;6816;48.506;9.050;2022-10-22T14:07:01;1.30;;;0.73;;
13487;SDS011;6816;48.506;9.050;2022-10-22T14:10:02;1.88;;;0.95;;
13487;SDS011;6816;48.506;9.050;2022-10-22T14:13:13;2.03;;;0.70;;
13487;SDS011;6816;48.506;9.050;2022-10-22T14:16:17;0.90;;;0.50;;
13487;SDS011;6816;48.506;9.050;2022-10-22T14:19:20;4.47;;;0.80;;
13487;SDS011;6816;48.506;9.050;2022-10-22T14:22:20;1.60;;;0.50;;
13487;SDS011;6816;48.506;9.050;2022-10-22T14:25:25;2.35;;;0.80;;
13487;SDS011;6816;48.506;9.050;2022-10-22T14:28:26;0.77;;;0.45;;
13487;SDS011;6816;48.506;9.050;2022-10-22T14:31:27;0.95;;;0.70;;
13487;SDS011;6816;48.506;9.050;2022-10-22T14:34:27;1.02;;;0.70;;
13487;SDS011;6816;48.506;9.050;2022-10-22T14:37:28;2.38;;;0.75;;
13487;SDS011;6816;48.506;9.050;2022-10-22T14:40:28;1.20;;;0.70;;
13487;SDS011;6816;48.506;9.050;2022-10-22T14:43:29;2.63;;;1.00;;
13487;SDS011;6816;48.506;9.050;2022-10-22T14:46:30;1.90;;;0.70;;
13487;SDS011;6816;48.506;9.050;2022-10-22T14:49:31;1.17;;;0.80;;
13487;SDS011;6816;48.506;9.050;2022-10-22T14:52:31;3.22;;;0.63;;
13487;SDS011;6816;48.506;9.050;2022-10-22T14:55:33;1.95;;;0.88;;
13487;SDS011;6816;48.506;9.050;2022-10-22T14:58:33;0.60;;;0.50;;
13487;SDS011;6816;48.506;9.050;2022-10-22T15:01:34;3.20;;;0.70;;
13487;SDS011;6816;48.506;9.050;2022-10-22T15:04:35;1.40;;;0.60;;
13487;SDS011;6816;48.506;9.050;2022-10-22T15:07:36;1.73;;;0.65;;
13487;SDS011;6816;48.506;9.050;2022-10-22T15:10:37;2.00;;;0.88;;
13487;SDS011;6816;48.506;9.050;2022-10-22T15:13:38;1.40;;;0.70;;
13487;SDS011;6816;48.506;9.050;2022-10-22T15:16:40;2.78;;;0.80;;
13487;SDS011;6816;48.506;9.050;2022-10-22T15:19:40;2.30;;;0.80;;
13487;SDS011;6816;48.506;9.050;2022-10-22T15:22:42;2.58;;;0.70;;
13487;SDS011;6816;48.506;9.050;2022-10-22T15:25:44;1.25;;;0.65;;
13487;SDS011;6816;48.506;9.050;2022-10-22T15:28:44;2.13;;;0.80;;
13487;SDS011;6816;48.506;9.050;2022-10-22T15:31:47;2.35;;;0.82;;
13487;SDS011;6816;48.506;9.050;2022-10-22T15:34:47;2.00;;;0.70;;
13487;SDS011;6816;48.506;9.050;2022-10-22T15:37:51;2.72;;;0.80;;
13487;SDS011;6816;48.506;9.050;2022-10-22T15:40:58;0.98;;;0.80;;
13487;SDS011;6816;48.506;9.050;2022-10-22T15:44:00;2.50;;;1.10;;
13487;SDS011;6816;48.506;9.050;2022-10-22T15:47:04;1.88;;;1.38;;
13487;SDS011;6816;48.506;9.050;2022-10-22T15:50:06;2.60;;;1.40;;
13487;SDS011;6816;48.506;9.050;2022-10-22T15:53:07;3.13;;;1.40;;
13487;SDS011;6816;48.506;9.050;2022-10-22T15:56:08;4.07;;;1.70;;
13487;SDS011;6816;48.506;9.050;2022-10-22T15:59:11;3.27;;;1.30;;
13487;SDS011;6816;48.506;9.050;2022-10-22T16:02:13;3.73;;;1.67;;
13487;SDS011;6816;48.506;9.050;2022-10-22T16:05:15;2.67;;;1.10;;
13487;SDS011;6816;48.506;9.050;2022-10-22T16:08:15;3.07;;;1.53;;
13487;SDS011;6816;48.506;9.050;2022-10-22T16:11:16;2.50;;;1.50;;
13487;SDS011;6816;48.506;9.050;2022-10-22T16:14:17;3.40;;;1.30;;
13487;SDS011;6816;48.506;9.050;2022-10-22T16:17:19;3.67;;;1.37;;
13487;SDS011;6816;48.506;9.050;2022-10-22T16:20:20;1.90;;;1.13;;
13487;SDS011;6816;48.506;9.050;2022-10-22T16:23:20;1.60;;;1.10;;
13487;SDS011;6816;48.506;9.050;2022-10-22T16:26:21;3.60;;;1.23;;
13487;SDS011;6816;48.506;9.050;2022-10-22T16:29:22;1.73;;;1.20;;
13487;SDS011;6816;48.506;9.050;2022-10-22T16:32:22;2.00;;;1.00;;
13487;SDS011;6816;48.506;9.050;2022-10-22T16:35:23;2.30;;;1.77;;
13487;SDS011;6816;48.506;9.050;2022-10-22T16:38:24;10.90;;;2.43;;
13487;SDS011;6816;48.506;9.050;2022-10-22T16:41:25;5.23;;;1.67;;
13487;SDS011;6816;48.506;9.050;2022-10-22T16:44:33;7.10;;;1.50;;
13487;SDS011;6816;48.506;9.050;2022-10-22T16:47:34;3.23;;;1.10;;
13487;SDS011;6816;48.506;9.050;2022-10-22T16:50:37;5.20;;;1.00;;
13487;SDS011;6816;48.506;9.050;2022-10-22T16:53:38;3.53;;;0.90;;
13487;SDS011;6816;48.506;9.050;2022-10-22T16:56:39;3.87;;;0.90;;
13487;SDS011;6816;48.506;9.050;2022-10-22T16:59:39;2.90;;;0.90;;
13487;SDS011;6816;48.506;9.050;2022-10-22T17:02:40;1.67;;;0.93;;
13487;SDS011;6816;48.506;9.050;2022-10-22T17:05:40;2.57;;;1.20;;
13487;SDS011;6816;48.506;9.050;2022-10-22T17:08:41;3.70;;;1.00;;
13487;SDS011;6816;48.506;9.050;2022-10-22T17:11:42;4.93;;;0.87;;
13487;SDS011;6816;48.506;9.050;2022-10-22T17:14:43;7.83;;;1.10;;
13487;SDS011;6816;48.506;9.050;2022-10-22T17:17:43;3.53;;;1.20;;
13487;SDS011;6816;48.506;9.050;2022-10-22T17:20:47;4.57;;;1.20;;
13487;SDS011;6816;48.506;9.050;2022-10-22T17:23:48;4.20;;;2.00;;
13487;SDS011;6816;48.506;9.050;2022-10-22T17:26:53;3.63;;;1.83;;
13487;SDS011;6816;48.506;9.050;2022-10-22T17:29:53;6.13;;;1.43;;
13487;SDS011;6816;48.506;9.050;2022-10-22T17:32:54;2.90;;;1.80;;
13487;SDS011;6816;48.506;9.050;2022-10-22T17:35:54;3.90;;;1.77;;
13487;SDS011;6816;48.506;9.050;2022-10-22T17:38:56;4.73;;;1.50;;
13487;SDS011;6816;48.506;9.050;2022-10-22T17:41:58;4.73;;;2.20;;
13487;SDS011;6816;48.506;9.050;2022-10-22T17:44:59;4.10;;;2.20;;
13487;SDS011;6816;48.506;9.050;2022-10-22T17:48:00;2.57;;;1.80;;
13487;SDS011;6816;48.506;9.050;2022-10-22T17:51:04;6.57;;;1.87;;
13487;SDS011;6816;48.506;9.050;2022-10-22T17:54:09;5.07;;;1.80;;
13487;SDS011;6816;48.506;9.050;2022-10-22T17:57:09;4.40;;;2.30;;
13487;SDS011;6816;48.506;9.050;2022-10-22T18:00:11;6.83;;;3.43;;
13487;SDS011;6816;48.506;9.050;2022-10-22T18:03:15;4.37;;;3.10;;
13487;SDS011;6816;48.506;9.050;2022-10-22T18:06:15;5.90;;;3.40;;
13487;SDS011;6816;48.506;9.050;2022-10-22T18:09:17;5.10;;;2.90;;
13487;SDS011;6816;48.506;9.050;2022-10-22T18:12:17;5.27;;;2.70;;
13487;SDS011;6816;48.506;9.050;2022-10-22T18:15:18;5.87;;;3.13;;
13487;SDS011;6816;48.506;9.050;2022-10-22T18:18:19;5.23;;;2.00;;
13487;SDS011;6816;48.506;9.050;2022-10-22T18:21:20;5.03;;;2.10;;
13487;SDS011;6816;48.506;9.050;2022-10-22T18:24:22;3.77;;;2.50;;
13487;SDS011;6816;48.506;9.050;2022-10-22T18:27:22;7.70;;;3.50;;
13487;SDS011;6816;48.506;9.050;2022-10-22T18:30:23;6.17;;;3.33;;
13487;SDS011;6816;48.506;9.050;2022-10-22T18:33:24;5.73;;;4.00;;
13487;SDS011;6816;48.506;9.050;2022-10-22T18:36:25;5.60;;;3.73;;
13487;SDS011;6816;48.506;9.050;2022-10-22T18:39:26;5.23;;;3.00;;
13487;SDS011;6816;48.506;9.050;2022-10-22T18:42:26;4.87;;;3.00;;
13487;SDS011;6816;48.506;9.050;2022-10-22T18:45:27;5.93;;;2.77;;
13487;SDS011;6816;48.506;9.050;2022-10-22T18:48:28;4.93;;;2.50;;
13487;SDS011;6816;48.506;9.050;2022-10-22T18:51:28;3.83;;;2.30;;
13487;SDS011;6816;48.506;9.050;2022-10-22T18:54:30;6.27;;;2.10;;
13487;SDS011;6816;48.506;9.050;2022-10-22T18:57:31;6.20;;;2.40;;
13487;SDS011;6816;48.506;9.050;2022-10-22T19:00:33;5.27;;;3.03;;
13487;SDS011;6816;48.506;9.050;2022-10-22T19:03:35;6.30;;;3.10;;
13487;SDS011;6816;48.506;9.050;2022-10-22T19:06:36;9.10;;;2.67;;
13487;SDS011;6816;48.506;9.050;2022-10-22T19:09:37;4.07;;;2.17;;
13487;SDS011;6816;48.506;9.050;2022-10-22T19:12:39;4.80;;;2.43;;
13487;SDS011;6816;48.506;9.050;2022-10-22T19:15:39;4.80;;;2.03;;
13487;SDS011;6816;48.506;9.050;2022-10-22T19:18:40;7.10;;;2.50;;
13487;SDS011;6816;48.506;9.050;2022-10-22T19:21:41;3.70;;;2.10;;
13487;SDS011;6816;48.506;9.050;2022-10-22T19:24:41;3.57;;;2.17;;
13487;SDS011;6816;48.506;9.050;2022-10-22T19:27:42;5.03;;;2.60;;
13487;SDS011;6816;48.506;9.050;2022-10-22T19:30:43;8.17;;;2.37;;
13487;SDS011;6816;48.506;9.050;2022-10-22T19:33:44;4.93;;;2.30;;
13487;SDS011;6816;48.506;9.050;2022-10-22T19:36:45;4.60;;;2.37;;
13487;SDS011;6816;48.506;9.050;2022-10-22T19:39:47;3.90;;;2.20;;
13487;SDS011;6816;48.506;9.050;2022-10-22T19:42:48;6.17;;;2.90;;
13487;SDS011;6816;48.506;9.050;2022-10-22T19:45:50;4.33;;;2.07;;
13487;SDS011;6816;48.506;9.050;2022-10-22T19:48:51;3.10;;;1.90;;
13487;SDS011;6816;48.506;9.050;2022-10-22T19:51:52;3.20;;;2.33;;
13487;SDS011;6816;48.506;9.050;2022-10-22T19:54:52;5.37;;;2.00;;
13487;SDS011;6816;48.506;9.050;2022-10-22T19:57:53;3.73;;;2.33;;
13487;SDS011;6816;48.506;9.050;2022-10-22T20:00:54;4.10;;;2.40;;